Time;durP1;ratioP1;P1;durP2;ratioP2;P2;SDS_P1;SDS_P2;PMS_P1;PMS_P2;Temp;Humidity;BMP_temperature;BMP_pressure;BME280_temperature;BME280_humidity;BME280_pressure;Samples;Min_cycle;Max_cycle;Signal;HPM_P1;HPM_P2
2022/05/24 00:01:30;;;;;;;12.48;10.25;;;;;;;17.33;100.00;98179.53;5075762;28;20204;-83
2022/05/24 00:03:57;;;;;;;11.50;9.93;;;;;;;17.29;100.00;98193.47;5075876;28;20221;-83
2022/05/24 00:06:28;;;;;;;13.20;10.13;;;;;;;17.34;100.00;98192.97;5056439;28;20701;-84
2022/05/24 00:08:55;;;;;;;11.35;9.55;;;;;;;17.47;100.00;98195.22;5055554;28;20206;-83
2022/05/24 00:11:22;;;;;;;9.63;8.68;;;;;;;17.45;100.00;98203.53;5055954;28;20197;-85
2022/05/24 00:13:48;;;;;;;11.18;10.07;;;;;;;17.49;100.00;98191.28;5055448;28;20186;-83
2022/05/24 00:16:15;;;;;;;11.00;9.13;;;;;;;17.58;100.00;98184.00;5056819;28;20209;-83
2022/05/24 00:18:42;;;;;;;9.93;8.93;;;;;;;17.55;100.00;98178.91;5055696;28;20566;-84
2022/05/24 00:21:09;;;;;;;12.18;10.00;;;;;;;17.59;100.00;98177.56;5055261;28;20198;-82
2022/05/24 00:23:37;;;;;;;10.82;9.80;;;;;;;17.69;100.00;98180.09;5055374;28;20628;-83
2022/05/24 00:26:06;;;;;;;11.40;9.95;;;;;;;17.82;100.00;98183.22;5071101;28;20282;-83
2022/05/24 00:28:34;;;;;;;10.88;8.60;;;;;;;17.87;100.00;98194.44;5075430;28;20186;-83
2022/05/24 00:31:02;;;;;;;11.30;8.20;;;;;;;17.80;100.00;98185.22;5075502;28;20279;-83
2022/05/24 00:33:31;;;;;;;11.00;9.90;;;;;;;17.64;100.00;98191.50;5075071;28;20227;-83
2022/05/24 00:35:57;;;;;;;9.32;8.07;;;;;;;17.66;100.00;98194.91;5072747;28;20197;-83
2022/05/24 00:38:28;;;;;;;9.88;8.43;;;;;;;17.75;100.00;98186.72;5074355;28;20186;-83
2022/05/24 00:41:05;;;;;;;9.73;8.73;;;;;;;17.65;100.00;98187.75;5059096;28;20662;-84
2022/05/24 00:43:34;;;;;;;9.15;8.27;;;;;;;17.64;100.00;98187.94;5063722;28;20194;-83
2022/05/24 00:46:08;;;;;;;9.88;8.85;;;;;;;17.57;100.00;98184.16;5057786;28;20212;-83
2022/05/24 00:48:37;;;;;;;10.70;9.63;;;;;;;17.63;100.00;98188.94;5055093;28;20187;-83
2022/05/24 00:51:06;;;;;;;10.68;9.68;;;;;;;17.61;100.00;98197.25;5054790;28;20231;-83
2022/05/24 00:53:37;;;;;;;10.60;9.27;;;;;;;17.51;100.00;98182.97;5063170;28;20201;-83
2022/05/24 00:56:09;;;;;;;9.82;8.93;;;;;;;17.56;100.00;98180.59;5075225;28;20241;-84
2022/05/24 00:58:42;;;;;;;12.45;9.45;;;;;;;17.54;100.00;98187.22;5075461;28;20185;-84
2022/05/24 01:01:29;;;;;;;9.95;8.25;;;;;;;17.67;100.00;98185.72;5074740;28;20237;-84
2022/05/24 01:03:56;;;;;;;9.98;8.98;;;;;;;17.67;100.00;98174.81;5073288;28;20190;-83
2022/05/24 01:06:22;;;;;;;9.55;8.65;;;;;;;17.46;100.00;98169.03;5074669;28;20201;-84
2022/05/24 01:08:49;;;;;;;9.80;8.90;;;;;;;17.43;100.00;98170.19;5073258;28;20700;-83
2022/05/24 01:11:19;;;;;;;9.65;8.50;;;;;;;17.48;100.00;98178.72;5074727;28;20214;-83
2022/05/24 01:13:46;;;;;;;9.48;8.45;;;;;;;17.46;100.00;98169.03;5064134;28;20200;-84
2022/05/24 01:16:14;;;;;;;8.90;7.05;;;;;;;17.53;100.00;98163.78;5054714;28;20514;-83
2022/05/24 01:18:40;;;;;;;8.60;7.70;;;;;;;17.48;100.00;98165.13;5054835;28;20191;-83
2022/05/24 01:21:12;;;;;;;7.05;6.35;;;;;;;17.48;100.00;98164.28;5054642;28;20206;-84
2022/05/24 01:23:49;;;;;;;7.68;6.78;;;;;;;17.40;100.00;98156.94;5063371;28;20184;-83
2022/05/24 01:26:24;;;;;;;7.40;6.72;;;;;;;17.42;100.00;98159.50;5074469;28;20209;-83
2022/05/24 01:28:55;;;;;;;8.55;7.15;;;;;;;17.46;100.00;98169.03;5074318;28;20282;-83
2022/05/24 01:31:23;;;;;;;8.07;7.28;;;;;;;17.45;100.00;98162.72;5073124;28;20200;-83
2022/05/24 01:36:37;;;;;;;8.93;6.40;;;;;;;17.33;100.00;98163.22;5055145;28;20192;-84
2022/05/24 01:39:07;;;;;;;6.68;5.90;;;;;;;17.23;100.00;98164.22;5054402;28;20189;-83
2022/05/24 01:41:38;;;;;;;6.97;5.35;;;;;;;17.25;100.00;98164.03;5058640;28;20652;-83
2022/05/24 01:44:07;;;;;;;6.82;5.80;;;;;;;17.28;100.00;98164.56;5074192;28;20190;-83
2022/05/24 01:46:37;;;;;;;7.45;6.00;;;;;;;17.34;100.00;98165.75;5074564;28;20238;-83
2022/05/24 01:49:08;;;;;;;10.93;5.45;;;;;;;17.34;100.00;98162.19;5074725;28;20190;-83
2022/05/24 01:51:40;;;;;;;5.63;5.03;;;;;;;17.29;100.00;98152.66;5054359;28;20230;-83
2022/05/24 01:54:08;;;;;;;6.35;4.78;;;;;;;17.36;100.00;98157.44;5054447;28;20525;-83
2022/05/24 01:56:40;;;;;;;6.22;4.80;;;;;;;17.37;100.00;98161.88;5054583;28;20671;-83
2022/05/24 01:59:09;;;;;;;4.80;4.40;;;;;;;17.43;100.00;98155.75;5054674;28;20624;-83
2022/05/24 02:01:46;;;;;;;5.00;4.47;;;;;;;17.24;100.00;98155.03;5054190;28;20546;-84
2022/05/24 02:04:14;;;;;;;6.22;5.32;;;;;;;17.37;100.00;98153.72;5054147;28;20189;-83
2022/05/24 02:06:41;;;;;;;5.35;4.80;;;;;;;17.38;100.00;98153.53;5053846;28;20293;-84
2022/05/24 02:09:10;;;;;;;4.65;4.22;;;;;;;17.48;100.00;98161.56;5053788;28;20224;-84
2022/05/24 02:11:37;;;;;;;5.07;4.55;;;;;;;17.48;100.00;98167.00;5053815;28;20193;-84
2022/05/24 02:14:12;;;;;;;5.88;4.57;;;;;;;17.29;100.00;98166.25;5054067;28;20248;-83
2022/05/24 02:16:44;;;;;;;7.85;5.70;;;;;;;17.01;100.00;98154.81;5053882;28;20186;-83
2022/05/24 02:19:13;;;;;;;4.60;4.10;;;;;;;16.98;100.00;98160.59;5053575;28;20240;-83
2022/05/24 02:21:43;;;;;;;4.68;4.15;;;;;;;16.91;100.00;98164.94;5054290;28;20547;-83
2022/05/24 02:24:16;;;;;;;5.82;4.35;;;;;;;16.79;100.00;98156.25;5054332;28;20186;-83
2022/05/24 02:26:43;;;;;;;5.95;4.50;;;;;;;16.51;100.00;98160.16;5074245;28;20192;-82
2022/05/24 02:29:11;;;;;;;7.30;3.50;;;;;;;16.70;100.00;98164.50;5071610;28;20189;-83
2022/05/24 02:31:38;;;;;;;5.78;4.70;;;;;;;16.51;100.00;98165.59;5053676;28;20237;-84
2022/05/24 02:34:04;;;;;;;6.78;3.90;;;;;;;16.61;100.00;98171.78;5053473;28;20190;-83
2022/05/24 02:36:31;;;;;;;4.85;3.42;;;;;;;16.60;100.00;98168.22;5053455;28;20638;-84
2022/05/24 02:38:57;;;;;;;5.88;4.13;;;;;;;16.62;100.00;98165.31;5053416;28;21007;-83
2022/05/24 02:41:29;;;;;;;6.53;3.92;;;;;;;16.45;100.00;98161.66;5053498;28;20280;-83
2022/05/24 02:43:56;;;;;;;4.15;3.75;;;;;;;16.55;100.00;98162.41;5053293;28;20652;-83
2022/05/24 02:46:24;;;;;;;4.45;3.55;;;;;;;16.68;100.00;98149.19;5053001;28;20235;-83
2022/05/24 02:48:51;;;;;;;3.55;3.15;;;;;;;16.36;100.00;98154.50;5053109;28;20189;-83
2022/05/24 02:51:18;;;;;;;7.18;3.08;;;;;;;16.36;100.00;98149.06;5067694;28;20227;-83
2022/05/24 02:53:45;;;;;;;6.57;3.50;;;;;;;16.42;100.00;98149.25;5077021;28;20271;-84
2022/05/24 02:56:13;;;;;;;4.20;3.80;;;;;;;16.44;100.00;98144.53;5072467;28;20204;-84
2022/05/24 02:58:40;;;;;;;5.28;3.60;;;;;;;16.01;100.00;98151.72;5072904;28;20181;-84
2022/05/24 03:01:12;;;;;;;4.00;3.60;;;;;;;16.24;100.00;98149.34;5072682;28;20191;-84
2022/05/24 03:03:40;;;;;;;3.40;3.10;;;;;;;16.50;100.00;98153.88;5059191;28;20281;-84
2022/05/24 03:06:07;;;;;;;6.28;3.30;;;;;;;16.53;100.00;98155.41;5052909;28;20563;-84
2022/05/24 03:11:18;;;;;;;5.43;3.67;;;;;;;16.50;100.00;98163.91;5071351;28;20705;-84
2022/05/24 03:16:28;;;;;;;4.88;3.80;;;;;;;16.66;100.00;98163.97;5057598;28;20566;-83
2022/05/24 03:18:57;;;;;;;4.47;3.88;;;;;;;16.61;100.00;98155.47;5072791;28;20651;-83
2022/05/24 03:21:24;;;;;;;3.25;2.95;;;;;;;16.39;100.00;98159.59;5072544;28;20192;-83
2022/05/24 03:23:50;;;;;;;3.50;3.20;;;;;;;16.55;100.00;98162.41;5072640;28;20192;-83
2022/05/24 03:26:17;;;;;;;3.75;3.45;;;;;;;16.59;100.00;98165.66;5069290;28;20213;-83
2022/05/24 03:28:46;;;;;;;3.58;3.28;;;;;;;16.53;100.00;98155.41;5052816;28;20281;-84
2022/05/24 03:31:15;;;;;;;3.20;2.90;;;;;;;16.50;100.00;98156.59;5052499;28;20525;-83
2022/05/24 03:33:42;;;;;;;3.80;3.50;;;;;;;16.43;100.00;98171.84;5052647;28;20232;-83
2022/05/24 03:36:11;;;;;;;3.47;3.17;;;;;;;16.52;100.00;98170.03;5053575;28;20193;-83
2022/05/24 03:38:37;;;;;;;2.75;2.25;;;;;;;16.19;100.00;98173.41;5053459;28;20190;-83
2022/05/24 03:41:04;;;;;;;4.78;2.85;;;;;;;16.13;100.00;98174.03;5052433;28;20293;-83
2022/05/24 03:43:31;;;;;;;3.25;2.30;;;;;;;15.96;100.00;98181.19;5052631;28;20194;-83
2022/05/24 03:46:02;;;;;;;4.07;2.88;;;;;;;16.20;100.00;98187.81;5052316;28;20232;-83
2022/05/24 03:48:29;;;;;;;4.00;3.50;;;;;;;16.05;100.00;98187.53;5053383;28;20631;-84
2022/05/24 03:50:56;;;;;;;3.40;2.95;;;;;;;16.03;100.00;98195.88;5052442;28;20237;-83
2022/05/24 03:53:24;;;;;;;3.97;2.85;;;;;;;16.15;100.00;98214.63;5052183;28;20571;-83
2022/05/24 03:55:51;;;;;;;2.90;2.55;;;;;;;15.66;100.00;98225.00;5068058;28;20178;-88
2022/05/24 03:58:18;;;;;;;4.43;3.92;;;;;;;15.28;100.00;98246.81;5072532;28;20185;-87
2022/05/24 04:00:45;;;;;;;3.45;2.53;;;;;;;15.27;100.00;98247.81;5072227;28;20664;-87
2022/05/24 04:03:13;;;;;;;4.72;2.83;;;;;;;15.15;100.00;98268.00;5072447;28;20205;-87
2022/05/24 04:05:40;;;;;;;6.07;2.80;;;;;;;15.00;100.00;98273.09;5072357;28;20570;-88
2022/05/24 04:08:08;;;;;;;5.03;2.50;;;;;;;14.92;100.00;98278.38;5072165;28;20272;-88
2022/05/24 04:10:36;;;;;;;3.00;2.00;;;;;;;14.80;100.00;98281.28;5072416;28;20208;-87
2022/05/24 04:13:03;;;;;;;3.45;2.42;;;;;;;14.29;100.00;98297.91;5073794;28;20608;-86
2022/05/24 04:15:30;;;;;;;3.58;2.30;;;;;;;14.02;100.00;98310.34;5075434;28;20194;-87
2022/05/24 04:17:57;;;;;;;3.95;2.65;;;;;;;13.83;100.00;98315.72;5075761;28;20206;-87
2022/05/24 04:20:26;;;;;;;5.68;3.53;;;;;;;13.85;100.00;98324.56;5075328;28;20187;-87
2022/05/24 04:22:54;;;;;;;5.13;3.20;;;;;;;13.81;100.00;98340.19;5075656;28;20187;-86
2022/05/24 04:25:21;;;;;;;3.92;3.50;;;;;;;13.81;100.00;98340.19;5075100;28;20225;-86
2022/05/24 04:27:49;;;;;;;9.98;4.00;;;;;;;13.74;100.00;98336.34;5076147;28;20579;-88
2022/05/24 04:30:16;;;;;;;6.13;3.10;;;;;;;13.75;100.00;98332.66;5075676;28;20657;-88
2022/05/24 04:32:43;;;;;;;5.20;3.58;;;;;;;13.77;100.00;98330.69;5075479;28;20283;-85
2022/05/24 04:35:10;;;;;;;4.80;3.88;;;;;;;13.62;100.00;98323.97;5075250;28;20736;-87
2022/05/24 04:37:37;;;;;;;4.60;3.67;;;;;;;13.72;100.00;98322.09;5075205;28;20553;-86
2022/05/24 04:40:06;;;;;;;3.97;3.58;;;;;;;13.70;100.00;98313.28;5075029;28;20228;-86
2022/05/24 04:42:31;;;;;;;9.65;3.28;;;;;;;13.67;100.00;98322.53;5074604;28;20642;-86
2022/05/24 04:45:03;;;;;;;5.20;3.60;;;;;;;13.79;100.00;98335.94;5060248;28;20201;-82
2022/05/24 04:47:31;;;;;;;4.00;2.80;;;;;;;13.81;100.00;98337.50;5053771;28;20191;-82
2022/05/24 04:50:00;;;;;;;4.07;3.28;;;;;;;13.85;100.00;98349.75;5068370;28;20612;-81
2022/05/24 04:52:28;;;;;;;4.80;3.30;;;;;;;13.84;100.00;98352.59;5073584;28;20762;-84
2022/05/24 04:54:55;;;;;;;3.53;3.00;;;;;;;13.97;100.00;98355.88;5073788;28;20207;-83
2022/05/24 04:57:22;;;;;;;3.20;2.90;;;;;;;13.90;100.00;98347.47;5074006;28;20651;-85
2022/05/24 04:59:49;;;;;;;4.10;2.90;;;;;;;13.90;100.00;98350.19;5073535;28;20186;-84
2022/05/24 05:02:18;;;;;;;5.22;3.15;;;;;;;13.96;100.00;98348.78;5073846;28;20185;-83
2022/05/24 05:04:44;;;;;;;3.13;2.83;;;;;;;13.98;100.00;98354.91;5073669;28;20552;-83
2022/05/24 05:07:11;;;;;;;4.25;2.92;;;;;;;14.00;100.00;98354.75;5073898;28;20222;-83
2022/05/24 05:09:38;;;;;;;2.65;2.45;;;;;;;14.16;100.00;98353.19;5073757;28;20534;-83
2022/05/24 05:12:07;;;;;;;4.30;2.95;;;;;;;14.35;100.00;98356.91;5073939;28;20194;-84
2022/05/24 05:14:34;;;;;;;6.18;4.90;;;;;;;14.43;100.00;98356.19;5074180;28;20186;-84
2022/05/24 05:17:01;;;;;;;3.42;2.50;;;;;;;14.62;100.00;98355.34;5074129;28;20273;-81
2022/05/24 05:19:29;;;;;;;3.50;2.22;;;;;;;14.39;100.00;98347.50;5075566;28;20300;-87
2022/05/24 05:21:56;;;;;;;3.55;2.55;;;;;;;14.56;100.00;98352.22;5075014;28;20183;-82
2022/05/24 05:24:22;;;;;;;2.90;2.60;;;;;;;14.54;100.00;98353.31;5073632;28;20206;-85
2022/05/24 05:26:49;;;;;;;3.10;2.70;;;;;;;14.72;100.00;98369.72;5074411;28;20701;-83
2022/05/24 05:31:16;;;;;;;3.25;2.90;;;;;;;14.70;100.00;98366.31;5072982;28;20203;-83
2022/05/24 05:32:02;;;;;;;5.63;2.80;;;;;;;14.79;100.00;98377.13;5073008;28;20191;-82
2022/05/24 05:34:30;;;;;;;3.75;3.03;;;;;;;15.03;100.00;98392.03;5072443;28;20193;-83
2022/05/24 05:36:57;;;;;;;3.08;2.58;;;;;;;14.99;100.00;98398.75;5072665;28;20193;-84
2022/05/24 05:39:24;;;;;;;3.85;2.33;;;;;;;14.85;100.00;98405.47;5073022;28;20524;-84
2022/05/24 05:41:52;;;;;;;3.20;2.40;;;;;;;14.78;100.00;98412.47;5072499;28;20232;-83
2022/05/24 05:44:19;;;;;;;4.43;2.70;;;;;;;14.67;100.00;98410.78;5072554;28;20213;-83
2022/05/24 05:46:45;;;;;;;4.50;2.25;;;;;;;14.72;100.00;98392.25;5072585;28;20215;-84
2022/05/24 05:49:13;;;;;;;4.25;3.15;;;;;;;14.56;100.00;98406.38;5072810;28;20556;-83
2022/05/24 05:51:41;;;;;;;3.30;3.00;;;;;;;14.38;100.00;98411.63;5072586;28;20597;-83
2022/05/24 05:54:08;;;;;;;7.22;3.30;;;;;;;14.36;100.00;98426.31;5072247;28;20186;-83
2022/05/24 05:56:35;;;;;;;5.25;3.70;;;;;;;14.54;100.00;98430.06;5072516;28;20183;-83
2022/05/24 05:59:02;;;;;;;8.35;5.63;;;;;;;14.92;100.00;98436.41;5072405;28;20208;-83
2022/05/24 06:01:30;;;;;;;4.97;3.22;;;;;;;14.94;100.00;98439.00;5072249;28;20192;-83
2022/05/24 06:03:56;;;;;;;4.20;2.95;;;;;;;14.84;100.00;98444.44;5072819;28;20691;-84
2022/05/24 06:06:26;;;;;;;3.35;2.72;;;;;;;14.69;100.00;98462.13;5072594;28;20223;-84
2022/05/24 06:08:54;;;;;;;4.10;3.20;;;;;;;14.58;100.00;98465.81;5072609;28;20190;-83
2022/05/24 06:11:20;;;;;;;4.20;3.10;;;;;;;14.79;100.00;98473.81;5072251;28;20561;-84
2022/05/24 06:13:48;;;;;;;4.88;3.90;;;;;;;15.14;100.00;98473.19;5072026;28;20235;-85
2022/05/24 06:16:15;;;;;;;4.47;2.97;;;;;;;14.98;100.00;98472.94;5072272;28;20234;-85
2022/05/24 06:18:42;;;;;;;3.63;2.33;;;;;;;15.00;100.00;98470.94;5072230;28;20200;-84
2022/05/24 06:21:08;;;;;;;8.70;6.90;;;;;;;15.27;100.00;98475.59;5072012;28;20347;-85
2022/05/24 06:23:35;;;;;;;4.03;2.67;;;;;;;15.36;100.00;98480.13;5072120;28;20203;-85
2022/05/24 06:26:03;;;;;;;3.05;2.60;;;;;;;15.46;100.00;98480.09;5071882;28;20208;-84
2022/05/24 06:28:30;;;;;;;2.80;2.42;;;;;;;15.47;100.00;98479.13;5072334;28;20607;-84
2022/05/24 06:30:57;;;;;;;2.80;2.20;;;;;;;15.48;100.00;98482.69;5072260;28;20539;-84
2022/05/24 06:33:24;;;;;;;3.65;2.10;;;;;;;15.54;100.00;98480.22;5071747;28;20189;-85
2022/05/24 06:35:52;;;;;;;4.85;1.98;;;;;;;15.49;100.00;98479.84;5071364;28;20631;-83
2022/05/24 06:38:21;;;;;;;6.65;2.38;;;;;;;15.66;100.00;98480.91;5071684;28;20188;-84
2022/05/24 06:40:48;;;;;;;2.90;2.15;;;;;;;15.74;100.00;98463.91;5072310;28;20687;-83
2022/05/24 06:43:16;;;;;;;2.80;2.47;;;;;;;16.33;100.00;98468.00;5071843;28;20208;-83
2022/05/24 06:45:43;;;;;;;6.80;4.40;;;;;;;16.71;100.00;98455.16;5071745;28;20235;-83
2022/05/24 06:48:10;;;;;;;2.20;1.65;;;;;;;16.66;100.00;98462.91;5071807;28;20193;-84
2022/05/24 06:50:38;;;;;;;3.60;2.30;;;;;;;16.83;100.00;98463.94;5071289;28;20247;-84
2022/05/24 06:53:04;;;;;;;3.20;2.17;;;;;;;16.27;100.00;98450.44;5071572;28;20647;-84
2022/05/24 06:55:31;;;;;;;4.95;1.80;;;;;;;15.90;100.00;98460.56;5071652;28;20185;-82
2022/05/24 06:57:58;;;;;;;3.15;1.88;;;;;;;16.03;100.00;98466.47;5071669;28;20207;-82
2022/05/24 07:03:15;;;;;;;3.95;2.00;;;;;;;15.98;100.00;98475.06;5062122;28;20196;-82
2022/05/24 07:05:42;;;;;;;2.85;1.85;;;;;;;15.77;100.00;98464.47;5071191;28;20233;-82
2022/05/24 07:08:10;;;;;;;8.52;4.60;;;;;;;16.30;100.00;98464.75;5071418;28;20552;-83
2022/05/24 07:10:38;;;;;;;2.80;2.50;;;;;;;16.46;100.00;98473.94;5071742;28;20188;-82
2022/05/24 07:13:07;;;;;;;5.82;2.40;;;;;;;16.38;100.00;98471.13;5071484;28;20193;-82
2022/05/24 07:15:35;;;;;;;6.20;2.20;;;;;;;16.23;100.00;98491.66;5071045;28;20184;-82
2022/05/24 07:18:02;;;;;;;2.20;1.50;;;;;;;15.96;100.00;98482.50;5071083;28;20201;-80
2022/05/24 07:20:33;;;;;;;4.10;1.83;;;;;;;16.05;100.00;98481.63;5071197;28;20278;-82
2022/05/24 07:23:08;;;;;;;2.15;1.65;;;;;;;16.12;100.00;98483.72;5071169;28;20597;-82
2022/05/24 07:25:35;;;;;;;2.72;2.08;;;;;;;15.91;100.00;98494.81;5071413;28;20242;-82
2022/05/24 07:28:03;;;;;;;2.70;1.70;;;;;;;16.10;100.00;98502.00;5071249;28;20224;-81
2022/05/24 07:30:30;;;;;;;3.17;2.15;;;;;;;16.43;100.00;98508.69;5071277;28;20197;-81
2022/05/24 07:32:58;;;;;;;1.98;1.40;;;;;;;16.36;100.00;98507.59;5071389;28;20205;-82
2022/05/24 07:35:25;;;;;;;5.20;2.10;;;;;;;16.31;100.00;98515.34;5070801;28;20189;-82
2022/05/24 07:37:52;;;;;;;4.20;1.73;;;;;;;16.80;100.00;98516.75;5071310;28;20209;-81
2022/05/24 07:45:49;;;;;;;3.80;1.55;;;;;;;16.60;100.00;98536.91;5070834;28;20199;-82
2022/05/24 07:48:18;;;;;;;2.15;1.48;;;;;;;16.69;100.00;98538.69;5073721;28;20189;-82
2022/05/24 07:50:45;;;;;;;4.50;1.80;;;;;;;16.54;100.00;98529.34;5074411;28;20188;-82
2022/05/24 07:53:12;;;;;;;3.90;1.60;;;;;;;16.19;100.00;98558.13;5074439;28;20185;-81
2022/05/24 07:55:39;;;;;;;4.10;1.73;;;;;;;15.88;100.00;98560.28;5074679;28;20184;-81
2022/05/24 07:58:06;;;;;;;2.72;1.48;;;;;;;15.59;100.00;98564.75;5074613;28;20642;-81
2022/05/24 08:00:36;;;;;;;1.83;1.38;;;;;;;15.99;100.00;98566.38;5074836;28;20204;-82
2022/05/24 08:03:04;;;;;;;1.92;1.20;;;;;;;16.03;100.00;98570.50;5074961;28;20192;-82
2022/05/24 08:05:33;;;;;;;2.22;1.48;;;;;;;15.84;100.00;98567.84;5074511;28;20214;-81
2022/05/24 08:08:00;;;;;;;3.05;1.30;;;;;;;15.84;100.00;98568.69;5074573;28;20207;-81
2022/05/24 08:10:28;;;;;;;4.82;1.92;;;;;;;16.21;100.00;98575.13;5074778;28;20181;-82
2022/05/24 08:12:55;;;;;;;3.45;2.15;;;;;;;16.23;100.00;98573.13;5074338;28;20219;-82
2022/05/24 08:15:23;;;;;;;2.72;1.83;;;;;;;16.30;100.00;98574.22;5075574;28;20189;-82
2022/05/24 08:17:50;;;;;;;6.30;1.58;;;;;;;16.31;100.00;98575.94;5074070;28;20195;-82
2022/05/24 08:20:18;;;;;;;3.25;1.80;;;;;;;16.93;100.00;98587.03;5074120;28;20220;-81
2022/05/24 08:22:46;;;;;;;2.30;2.00;;;;;;;17.64;98.92;98575.25;5074507;28;20704;-82
2022/05/24 08:25:13;;;;;;;3.67;1.67;;;;;;;17.95;98.53;98577.53;5074238;28;20192;-82
2022/05/24 08:27:40;;;;;;;5.03;2.10;;;;;;;18.35;91.02;98584.22;5074062;28;20221;-82
2022/05/24 08:30:09;;;;;;;4.30;1.88;;;;;;;18.41;87.64;98580.84;5074481;28;20281;-82
2022/05/24 08:32:35;;;;;;;3.83;1.63;;;;;;;19.05;82.29;98569.47;5074202;28;20205;-81
2022/05/24 08:35:02;;;;;;;3.58;1.67;;;;;;;18.88;80.27;98579.47;5074089;28;20539;-81
2022/05/24 08:37:30;;;;;;;3.08;1.60;;;;;;;18.93;81.43;98583.41;5074036;28;20243;-82
2022/05/24 08:39:59;;;;;;;4.90;2.10;;;;;;;19.19;81.78;98587.88;5074142;28;20211;-82
2022/05/24 08:42:34;;;;;;;4.03;1.45;;;;;;;19.54;74.91;98592.16;5074149;28;20303;-82
2022/05/24 08:50:44;;;;;;;3.22;1.50;;;;;;;18.00;83.46;98596.97;5073267;28;20224;-80
2022/05/24 08:53:16;;;;;;;3.78;1.67;;;;;;;17.34;87.13;98594.72;5073937;28;20187;-81
2022/05/24 08:55:44;;;;;;;6.78;1.67;;;;;;;17.34;87.02;98606.47;5073602;28;20521;-82
2022/05/24 08:58:17;;;;;;;2.95;1.90;;;;;;;17.63;86.63;98598.03;5073328;28;20194;-81
2022/05/24 09:00:44;;;;;;;3.08;1.75;;;;;;;17.77;82.38;98603.91;5073001;28;20186;-82
2022/05/24 09:03:11;;;;;;;3.25;1.52;;;;;;;18.09;81.52;98615.06;5073219;28;20200;-81
2022/05/24 09:05:41;;;;;;;2.95;1.20;;;;;;;18.15;74.62;98615.44;5073550;28;20612;-81
2022/05/24 09:08:17;;;;;;;2.97;1.20;;;;;;;18.28;73.50;98618.56;5073648;28;20211;-81
2022/05/24 09:10:51;;;;;;;1.60;1.00;;;;;;;18.12;72.78;98622.91;5073449;28;20188;-81
2022/05/24 09:13:59;;;;;;;2.03;1.27;;;;;;;18.04;73.99;98620.13;5073173;28;20190;-81
2022/05/24 09:16:34;;;;;;;3.65;1.15;;;;;;;18.17;70.03;98611.53;5064912;28;20205;-82
2022/05/24 09:19:05;;;;;;;3.95;1.48;;;;;;;18.00;69.50;98613.31;5073470;28;20204;-81
2022/05/24 09:21:35;;;;;;;2.53;1.50;;;;;;;18.07;70.26;98622.56;5072755;28;20273;-82
2022/05/24 09:24:06;;;;;;;6.68;1.40;;;;;;;17.90;72.65;98620.72;5073345;28;20221;-81
2022/05/24 09:26:34;;;;;;;2.05;1.10;;;;;;;17.96;72.48;98622.81;5073307;28;20643;-82
2022/05/24 09:29:11;;;;;;;1.70;1.00;;;;;;;17.92;66.61;98619.53;5072932;28;20190;-82
2022/05/24 09:31:42;;;;;;;4.68;1.15;;;;;;;18.08;68.48;98631.56;5073269;28;20187;-82
2022/05/24 09:34:25;;;;;;;4.68;1.65;;;;;;;18.35;68.13;98638.72;5073150;28;20202;-82
2022/05/24 09:36:56;;;;;;;2.65;1.40;;;;;;;18.75;65.52;98634.47;5072832;28;20184;-82
2022/05/24 09:39:26;;;;;;;2.28;0.98;;;;;;;18.50;65.75;98648.00;5072714;28;20184;-81
2022/05/24 09:41:59;;;;;;;4.55;1.40;;;;;;;17.78;65.72;98628.28;5073067;28;20648;-82
2022/05/24 09:44:27;;;;;;;6.15;1.40;;;;;;;18.20;64.12;98643.03;5072979;28;20210;-82
2022/05/24 09:46:55;;;;;;;3.00;1.00;;;;;;;19.18;58.09;98643.50;5072619;28;20204;-82
2022/05/24 09:49:25;;;;;;;2.55;1.15;;;;;;;19.04;59.32;98652.31;5072484;28;20211;-81
2022/05/24 09:51:56;;;;;;;1.55;1.02;;;;;;;18.81;60.31;98644.72;5072220;28;20231;-81
2022/05/24 09:54:25;;;;;;;5.40;1.02;;;;;;;19.38;56.71;98639.44;5072397;28;20188;-81
2022/05/24 09:57:06;;;;;;;2.95;1.17;;;;;;;19.34;56.93;98635.31;5072185;28;20248;-82
2022/05/24 09:59:35;;;;;;;2.33;0.90;;;;;;;19.01;57.41;98628.09;5072221;28;20184;-81
2022/05/24 10:02:02;;;;;;;1.75;1.00;;;;;;;18.51;62.51;98641.50;5072268;28;20623;-82
2022/05/24 10:04:34;;;;;;;2.25;0.88;;;;;;;18.24;63.08;98636.25;5072037;28;20227;-82
2022/05/24 10:07:04;;;;;;;3.90;1.20;;;;;;;18.24;66.03;98641.72;5071751;28;20725;-82
2022/05/24 10:09:49;;;;;;;4.78;1.60;;;;;;;17.39;71.83;98652.25;5072116;28;20205;-81
2022/05/24 10:12:28;;;;;;;4.45;1.60;;;;;;;17.16;75.80;98651.84;5071709;28;20656;-82
2022/05/24 10:15:06;;;;;;;3.78;1.60;;;;;;;17.06;78.29;98652.78;5071990;28;20623;-81
2022/05/24 10:17:40;;;;;;;2.90;1.48;;;;;;;16.98;78.71;98671.75;5071802;28;20195;-81
2022/05/24 10:20:14;;;;;;;3.83;2.25;;;;;;;16.94;77.99;98653.16;5072203;28;20192;-82
2022/05/24 10:22:48;;;;;;;2.20;1.80;;;;;;;17.21;76.92;98666.72;5072206;28;20292;-81
2022/05/24 10:25:20;;;;;;;4.15;1.95;;;;;;;17.87;72.62;98657.31;5071683;28;20177;-81
2022/05/24 10:28:00;;;;;;;3.63;1.92;;;;;;;18.55;67.72;98678.34;5071635;28;20201;-82
2022/05/24 10:30:31;;;;;;;4.80;1.60;;;;;;;17.66;71.72;98657.63;5071830;28;20212;-81
2022/05/24 10:39:09;;;;;;;3.33;1.77;;;;;;;17.44;77.32;98652.66;5071453;28;20184;-83
2022/05/24 10:41:50;;;;;;;3.97;1.65;;;;;;;17.42;74.43;98657.41;5072017;28;20568;-82
2022/05/24 10:44:23;;;;;;;2.08;1.40;;;;;;;17.50;75.59;98658.34;5071599;28;20196;-82
2022/05/24 10:46:57;;;;;;;2.55;1.45;;;;;;;17.54;73.93;98663.44;5071027;28;20181;-82
2022/05/24 10:49:32;;;;;;;2.28;1.92;;;;;;;17.97;72.78;98665.38;5071285;28;20190;-82
2022/05/24 10:52:04;;;;;;;1.90;1.35;;;;;;;18.64;67.04;98667.47;5071092;28;20235;-82
2022/05/24 10:54:41;;;;;;;2.50;1.40;;;;;;;19.35;60.86;98669.75;5071779;28;20184;-81
2022/05/24 10:57:13;;;;;;;1.90;1.10;;;;;;;19.58;57.80;98670.00;5071497;28;20190;-82
2022/05/24 10:59:54;;;;;;;2.03;1.20;;;;;;;19.34;59.08;98662.63;5071899;28;20549;-82
2022/05/24 11:02:29;;;;;;;3.47;1.48;;;;;;;19.38;57.42;98664.00;5070670;28;20184;-81
2022/05/24 11:05:00;;;;;;;2.30;1.00;;;;;;;18.73;59.66;98661.03;5071807;28;20282;-82
2022/05/24 11:07:29;;;;;;;2.22;1.10;;;;;;;18.85;61.46;98667.06;5071762;28;20299;-81
2022/05/24 11:10:05;;;;;;;3.97;1.15;;;;;;;19.31;59.70;98670.25;5071749;28;20199;-81
2022/05/24 11:12:38;;;;;;;2.75;1.27;;;;;;;19.11;59.49;98673.31;5071542;28;20191;-81
2022/05/24 11:15:13;;;;;;;2.15;1.17;;;;;;;18.67;60.06;98672.59;5063206;28;20204;-82
2022/05/24 11:17:40;;;;;;;2.15;1.17;;;;;;;19.01;58.71;98674.47;5051200;28;20294;-82
2022/05/24 11:20:08;;;;;;;2.70;1.77;;;;;;;19.28;58.12;98668.72;5053711;28;20302;-81
2022/05/24 11:22:39;;;;;;;2.45;1.10;;;;;;;19.05;58.53;98667.66;5072348;28;20192;-81
2022/05/24 11:25:13;;;;;;;3.80;1.10;;;;;;;18.75;60.01;98676.22;5074982;28;20188;-82
2022/05/24 11:27:42;;;;;;;1.95;0.80;;;;;;;18.33;60.27;98668.84;5075548;28;20628;-81
2022/05/24 11:30:14;;;;;;;4.65;2.33;;;;;;;18.43;59.81;98671.47;5075206;28;20208;-82
2022/05/24 11:32:45;;;;;;;2.10;1.10;;;;;;;18.57;59.26;98664.56;5075735;28;20191;-81
2022/05/24 11:35:24;;;;;;;4.30;2.03;;;;;;;19.04;57.88;98677.72;5075222;28;20184;-81
2022/05/24 11:37:55;;;;;;;1.73;1.48;;;;;;;19.19;56.72;98675.19;5075037;28;20242;-82
2022/05/24 11:40:38;;;;;;;4.10;1.00;;;;;;;19.07;54.72;98673.81;5075375;28;20533;-80
2022/05/24 11:43:06;;;;;;;3.67;1.02;;;;;;;18.61;57.26;98676.84;5075531;28;20196;-83
2022/05/24 11:45:56;;;;;;;5.05;1.00;;;;;;;18.80;56.58;98675.75;5075051;28;20274;-81
2022/05/24 11:48:38;;;;;;;2.85;0.90;;;;;;;18.82;56.59;98672.88;5075388;28;20267;-81
2022/05/24 11:51:38;;;;;;;2.03;1.15;;;;;;;19.32;54.38;98680.19;5074548;28;20576;-80
2022/05/24 11:54:09;;;;;;;2.05;1.00;;;;;;;19.39;52.79;98675.75;5074804;28;20412;-81
2022/05/24 11:56:38;;;;;;;2.42;1.00;;;;;;;19.47;51.94;98680.38;5074470;28;20200;-82
2022/05/24 11:59:11;;;;;;;2.42;1.00;;;;;;;19.70;52.05;98677.88;5074986;28;20717;-82
2022/05/24 12:01:56;;;;;;;2.43;1.50;;;;;;;19.86;50.29;98680.59;5074472;28;20649;-82
2022/05/24 12:10:37;;;;;;;1.40;1.03;;;;;;;21.13;47.15;98665.25;5074606;28;20509;-83
2022/05/24 12:13:55;;;;;;;2.70;0.90;;;;;;;21.59;46.58;98659.81;5074751;28;20423;-82